createdAt,value
2023-12-09T00:00:55.176Z,4.03
2023-12-09T00:03:22.912Z,4.23
2023-12-09T00:05:50.493Z,3.73
2023-12-09T00:08:17.988Z,4.28
2023-12-09T00:10:45.750Z,4.19
2023-12-09T00:13:13.230Z,3.99
2023-12-09T00:15:40.671Z,3.75
2023-12-09T00:18:09.097Z,3.56
2023-12-09T00:20:36.548Z,3.49
2023-12-09T00:23:03.969Z,3.80
2023-12-09T00:25:31.633Z,3.34
2023-12-09T00:27:59.024Z,3.54
2023-12-09T00:30:26.610Z,3.50
2023-12-09T00:32:54.504Z,3.47
2023-12-09T00:35:22.675Z,3.64
2023-12-09T00:37:50.072Z,2.64
2023-12-09T00:40:19.016Z,3.56
2023-12-09T00:42:49.223Z,3.30
2023-12-09T00:45:16.758Z,3.65
2023-12-09T00:47:44.618Z,3.55
2023-12-09T00:50:12.058Z,3.68
2023-12-09T00:52:39.439Z,4.05
2023-12-09T00:55:07.681Z,3.81
2023-12-09T00:57:35.133Z,3.42
2023-12-09T01:00:03.573Z,4.09
2023-12-09T01:02:32.451Z,4.25
2023-12-09T01:04:59.955Z,4.16
2023-12-09T01:07:27.399Z,3.92
2023-12-09T01:09:55.407Z,4.58
2023-12-09T01:12:22.862Z,4.19
2023-12-09T01:14:51.531Z,3.88
2023-12-09T01:17:19.257Z,4.18
2023-12-09T01:19:46.688Z,3.61
2023-12-09T01:22:14.372Z,4.09
2023-12-09T01:24:42.025Z,4.00
2023-12-09T01:27:09.512Z,3.98
2023-12-09T01:29:40.683Z,4.24
2023-12-09T01:32:08.594Z,4.18
2023-12-09T01:34:39.748Z,4.14
2023-12-09T01:37:07.695Z,4.52
2023-12-09T01:39:35.121Z,4.58
2023-12-09T01:42:04.200Z,4.22
2023-12-09T01:44:31.910Z,4.14
2023-12-09T01:46:59.304Z,4.34
2023-12-09T01:49:26.979Z,4.08
2023-12-09T01:51:55.627Z,3.78
2023-12-09T01:54:23.177Z,4.06
2023-12-09T01:56:50.617Z,4.33
2023-12-09T01:59:18.508Z,4.12
2023-12-09T02:01:46.338Z,4.06
2023-12-09T02:04:14.493Z,3.76
2023-12-09T02:06:42.312Z,2.83
2023-12-09T02:09:10.519Z,3.35
2023-12-09T02:11:45.401Z,3.71
2023-12-09T02:14:17.993Z,3.72
2023-12-09T02:17:41.720Z,3.49
2023-12-09T02:20:12.420Z,3.77
2023-12-09T02:22:39.852Z,3.83
2023-12-09T02:25:08.171Z,3.87
2023-12-09T02:28:00.576Z,4.28
2023-12-09T02:30:50.750Z,4.21
2023-12-09T02:33:21.864Z,4.15
2023-12-09T02:35:51.938Z,4.59
2023-12-09T02:38:20.058Z,4.59
2023-12-09T02:40:48.086Z,4.03
2023-12-09T02:43:15.477Z,3.99
2023-12-09T02:45:45.827Z,4.12
2023-12-09T02:48:13.507Z,3.56
2023-12-09T02:50:41.341Z,3.59
2023-12-09T02:53:09.024Z,3.89
2023-12-09T02:55:36.421Z,3.76
2023-12-09T02:58:03.916Z,3.98
2023-12-09T03:00:31.675Z,3.74
2023-12-09T03:02:59.278Z,3.63
2023-12-09T03:05:26.824Z,4.23
2023-12-09T03:07:54.585Z,4.10
2023-12-09T03:10:22.122Z,4.29
2023-12-09T03:12:49.507Z,3.94
2023-12-09T03:15:17.166Z,3.91
2023-12-09T03:17:44.642Z,3.70
2023-12-09T03:20:12.275Z,3.89
2023-12-09T03:22:40.045Z,3.81
2023-12-09T03:25:07.696Z,3.99
2023-12-09T03:27:35.178Z,4.22
2023-12-09T03:30:03.862Z,3.93
2023-12-09T03:32:32.139Z,4.12
2023-12-09T03:34:59.560Z,4.45
2023-12-09T03:37:27.888Z,4.56
2023-12-09T03:39:55.308Z,4.50
2023-12-09T03:42:22.784Z,4.30
2023-12-09T03:44:50.425Z,3.96
2023-12-09T03:47:25.395Z,4.19
2023-12-09T03:49:56.838Z,4.41
2023-12-09T03:52:24.811Z,4.34
2023-12-09T03:54:52.386Z,4.25
2023-12-09T03:57:20.107Z,4.13
2023-12-09T03:59:47.554Z,4.15
2023-12-09T04:02:15.613Z,4.36
2023-12-09T04:04:43.262Z,4.54
2023-12-09T04:07:10.676Z,4.36
2023-12-09T04:09:38.305Z,4.27
2023-12-09T04:12:06.194Z,4.27
2023-12-09T04:14:33.598Z,3.99
2023-12-09T04:17:00.971Z,4.43
2023-12-09T04:19:30.969Z,4.05
2023-12-09T04:21:58.456Z,3.55
2023-12-09T04:24:25.847Z,3.58
2023-12-09T04:26:53.556Z,3.36
2023-12-09T04:29:21.273Z,3.10
2023-12-09T04:31:48.759Z,3.55
2023-12-09T04:34:16.489Z,3.71
2023-12-09T04:36:43.947Z,3.73
2023-12-09T04:39:11.448Z,4.22
2023-12-09T04:41:39.329Z,3.88
2023-12-09T04:44:06.832Z,3.85
2023-12-09T04:46:34.289Z,3.92
2023-12-09T04:49:01.995Z,4.29
2023-12-09T04:51:29.472Z,4.36
2023-12-09T04:53:56.977Z,4.22
2023-12-09T04:56:24.980Z,4.27
2023-12-09T04:58:52.376Z,4.37
2023-12-09T05:01:19.831Z,4.12
2023-12-09T05:03:48.332Z,4.02
2023-12-09T05:06:15.990Z,4.04
2023-12-09T05:08:43.644Z,3.93
2023-12-09T05:11:11.432Z,4.33
2023-12-09T05:13:39.081Z,4.19
2023-12-09T05:16:06.924Z,4.07
2023-12-09T05:18:36.103Z,4.49
2023-12-09T05:21:06.530Z,4.08
2023-12-09T05:23:34.596Z,4.43
2023-12-09T05:26:02.283Z,4.42
2023-12-09T05:28:31.276Z,4.73
2023-12-09T05:30:58.740Z,4.53
2023-12-09T05:33:26.539Z,4.66
2023-12-09T05:35:54.049Z,4.53
2023-12-09T05:38:21.440Z,4.22
2023-12-09T05:40:49.345Z,4.33
2023-12-09T05:43:16.794Z,4.13
2023-12-09T05:45:44.225Z,4.37
2023-12-09T05:48:12.091Z,4.10
2023-12-09T05:50:39.660Z,4.29
2023-12-09T05:53:08.313Z,4.11
2023-12-09T05:55:36.021Z,4.44
2023-12-09T05:58:03.981Z,4.45
2023-12-09T06:00:32.801Z,4.46
2023-12-09T06:03:01.624Z,4.04
2023-12-09T06:05:29.060Z,3.32
2023-12-09T06:07:56.480Z,3.65
2023-12-09T06:10:24.159Z,3.90
2023-12-09T06:12:51.573Z,3.85
2023-12-09T06:15:20.117Z,3.80
2023-12-09T06:17:47.803Z,4.18
2023-12-09T06:20:15.881Z,4.26
2023-12-09T06:22:43.836Z,4.21
2023-12-09T06:25:11.531Z,4.08
2023-12-09T06:27:39.021Z,4.25
2023-12-09T06:30:07.178Z,4.18
2023-12-09T06:32:34.915Z,3.97
2023-12-09T06:35:02.667Z,4.09
2023-12-09T06:37:30.145Z,4.16
2023-12-09T06:39:57.916Z,4.28
2023-12-09T06:42:25.818Z,4.38
2023-12-09T06:44:53.504Z,4.33
2023-12-09T06:47:21.250Z,4.23
2023-12-09T06:49:48.884Z,4.09
2023-12-09T06:52:16.428Z,4.22
2023-12-09T06:54:44.145Z,4.31
2023-12-09T06:57:11.625Z,3.81
2023-12-09T06:59:39.064Z,4.28
2023-12-09T07:02:06.685Z,4.18
2023-12-09T07:04:37.285Z,4.16
2023-12-09T07:07:04.765Z,4.23
2023-12-09T07:09:32.465Z,4.39
2023-12-09T07:12:02.398Z,4.50
2023-12-09T07:14:30.500Z,3.73
2023-12-09T07:16:58.233Z,3.71
2023-12-09T07:19:25.711Z,3.42
2023-12-09T07:21:53.904Z,3.09
2023-12-09T07:24:21.633Z,3.80
2023-12-09T07:26:49.033Z,3.73
2023-12-09T07:29:16.460Z,3.88
2023-12-09T07:31:44.155Z,3.80
2023-12-09T07:34:17.530Z,3.93
2023-12-09T07:36:45.321Z,4.10
2023-12-09T07:39:12.740Z,2.87
2023-12-09T07:41:41.480Z,2.77
2023-12-09T07:44:09.244Z,2.61
2023-12-09T07:46:37.238Z,2.93
2023-12-09T07:49:04.719Z,2.75
2023-12-09T07:51:32.457Z,3.17
2023-12-09T07:53:59.967Z,2.82
2023-12-09T07:56:27.370Z,2.76
2023-12-09T07:58:55.100Z,2.88
2023-12-09T08:01:22.594Z,3.36
2023-12-09T08:03:50.453Z,2.94
2023-12-09T08:06:17.969Z,3.68
2023-12-09T08:08:45.344Z,2.80
2023-12-09T08:11:13.079Z,3.07
2023-12-09T08:13:40.454Z,2.82
2023-12-09T08:16:08.246Z,2.31
2023-12-09T08:18:36.003Z,2.80
2023-12-09T08:21:03.541Z,3.16
2023-12-09T08:23:31.067Z,3.03
2023-12-09T08:25:58.707Z,3.46
2023-12-09T08:28:28.612Z,3.00
2023-12-09T08:30:56.125Z,3.49
2023-12-09T08:33:23.917Z,3.33
2023-12-09T08:35:51.376Z,2.81
2023-12-09T08:38:18.758Z,2.85
2023-12-09T08:40:46.414Z,3.30
2023-12-09T08:43:13.820Z,2.87
2023-12-09T08:45:41.317Z,3.43
2023-12-09T08:48:10.341Z,2.85
2023-12-09T08:50:37.879Z,2.87
2023-12-09T08:53:05.629Z,3.16
2023-12-09T08:55:33.300Z,3.08
2023-12-09T08:58:00.706Z,2.85
2023-12-09T09:00:28.875Z,3.01
2023-12-09T09:02:57.141Z,3.02
2023-12-09T09:05:25.390Z,3.14
2023-12-09T09:07:52.916Z,3.69
2023-12-09T09:10:20.772Z,3.90
2023-12-09T09:12:48.529Z,3.49
2023-12-09T09:15:17.514Z,4.09
2023-12-09T09:17:45.270Z,3.53
2023-12-09T09:20:12.760Z,2.64
2023-12-09T09:22:42.155Z,3.71
2023-12-09T09:25:14.290Z,3.65
2023-12-09T09:27:41.880Z,3.61
2023-12-09T09:30:09.484Z,4.00
2023-12-09T09:32:37.182Z,3.27
2023-12-09T09:35:05.024Z,3.44
2023-12-09T09:37:32.518Z,3.62
2023-12-09T09:40:00.259Z,3.37
2023-12-09T09:42:33.583Z,3.76
2023-12-09T09:45:27.479Z,2.59
2023-12-09T09:47:58.944Z,2.77
2023-12-09T09:50:27.689Z,2.74
2023-12-09T09:52:55.330Z,2.95
2023-12-09T09:55:24.453Z,3.27
2023-12-09T09:57:52.172Z,3.26
2023-12-09T10:00:21.010Z,2.93
2023-12-09T10:02:54.422Z,3.08
2023-12-09T10:05:23.762Z,2.81
2023-12-09T10:07:52.694Z,3.33
2023-12-09T10:10:20.132Z,3.51
2023-12-09T10:12:47.819Z,3.61
2023-12-09T10:15:15.607Z,3.76
2023-12-09T10:17:43.138Z,3.76
2023-12-09T10:20:11.978Z,3.59
2023-12-09T10:22:40.710Z,3.40
2023-12-09T10:25:08.916Z,3.28
2023-12-09T10:27:36.522Z,2.86
2023-12-09T10:30:04.752Z,3.39
2023-12-09T10:32:34.105Z,3.69
2023-12-09T10:35:04.527Z,3.62
2023-12-09T10:37:33.405Z,3.74
2023-12-09T10:40:03.739Z,3.48
2023-12-09T10:42:31.647Z,3.56
2023-12-09T10:45:03.284Z,3.82
2023-12-09T10:47:30.850Z,3.28
2023-12-09T10:49:58.428Z,2.93
2023-12-09T10:52:26.325Z,3.40
2023-12-09T10:54:53.842Z,3.25
2023-12-09T10:57:21.263Z,3.96
2023-12-09T10:59:48.955Z,4.02
2023-12-09T11:02:19.125Z,4.20
2023-12-09T11:04:47.017Z,3.51
2023-12-09T11:07:16.411Z,4.06
2023-12-09T11:09:44.099Z,3.98
2023-12-09T11:12:12.020Z,3.34
2023-12-09T11:14:39.737Z,3.35
2023-12-09T11:17:34.814Z,3.33
2023-12-09T11:20:11.466Z,3.21
2023-12-09T11:22:43.193Z,3.39
2023-12-09T11:25:20.259Z,3.81
2023-12-09T11:27:50.261Z,2.77
2023-12-09T11:30:39.450Z,3.31
2023-12-09T11:33:07.028Z,3.53
2023-12-09T11:35:38.432Z,3.73
2023-12-09T11:38:07.189Z,3.19
2023-12-09T11:40:34.912Z,3.85
2023-12-09T11:43:09.572Z,3.49
2023-12-09T11:45:38.141Z,3.68
2023-12-09T11:48:06.494Z,3.82
2023-12-09T11:50:34.010Z,4.08
2023-12-09T11:53:01.801Z,3.52
2023-12-09T11:55:30.389Z,3.38
2023-12-09T11:57:57.932Z,4.07
2023-12-09T12:00:25.713Z,4.49
2023-12-09T12:02:53.372Z,4.46
2023-12-09T12:05:21.127Z,4.26
2023-12-09T12:07:48.679Z,3.50
2023-12-09T12:10:16.477Z,3.82
2023-12-09T12:12:45.386Z,4.03
2023-12-09T12:15:13.815Z,4.07
2023-12-09T12:17:42.536Z,4.53
2023-12-09T12:20:13.204Z,4.39
2023-12-09T12:22:42.022Z,4.31
2023-12-09T12:25:10.477Z,4.34
2023-12-09T12:27:43.962Z,4.50
2023-12-09T12:30:12.307Z,5.00
2023-12-09T12:32:39.936Z,4.47
2023-12-09T12:35:08.610Z,4.79
2023-12-09T12:37:36.442Z,4.46
2023-12-09T12:40:04.467Z,4.12
2023-12-09T12:42:33.314Z,4.47
2023-12-09T12:45:01.207Z,4.63
2023-12-09T12:47:29.496Z,4.63
2023-12-09T12:49:57.019Z,4.73
2023-12-09T12:52:25.160Z,4.48
2023-12-09T12:54:52.706Z,4.58
2023-12-09T12:57:20.779Z,4.36
2023-12-09T12:59:48.913Z,4.67
2023-12-09T13:02:16.368Z,4.21
2023-12-09T13:04:43.789Z,4.68
2023-12-09T13:07:11.510Z,4.27
2023-12-09T13:09:39.074Z,4.43
2023-12-09T13:12:08.240Z,4.62
2023-12-09T13:14:36.006Z,4.77
2023-12-09T13:17:06.356Z,4.00
2023-12-09T13:19:33.886Z,3.73
2023-12-09T13:22:01.634Z,3.31
2023-12-09T13:24:29.346Z,3.90
2023-12-09T13:26:56.736Z,3.88
2023-12-09T13:29:24.594Z,3.97
2023-12-09T13:31:52.067Z,4.14
2023-12-09T13:34:19.555Z,3.65
2023-12-09T13:36:47.518Z,4.19
2023-12-09T13:39:16.507Z,4.16
2023-12-09T13:41:43.952Z,4.27
2023-12-09T13:44:11.659Z,3.96
2023-12-09T13:46:41.541Z,3.88
2023-12-09T13:49:09.182Z,4.50
2023-12-09T13:51:37.411Z,2.98
2023-12-09T13:54:05.046Z,2.54
2023-12-09T13:56:32.546Z,2.96
2023-12-09T13:59:00.288Z,2.60
2023-12-09T14:01:27.780Z,3.24
2023-12-09T14:03:55.746Z,3.86
2023-12-09T14:06:23.585Z,3.05
2023-12-09T14:08:51.180Z,2.91
2023-12-09T14:11:19.601Z,2.41
2023-12-09T14:13:47.064Z,2.38
2023-12-09T14:16:14.492Z,2.60
2023-12-09T14:18:42.378Z,2.77
2023-12-09T14:21:09.953Z,2.10
2023-12-09T14:23:37.737Z,2.04
2023-12-09T14:26:05.812Z,2.14
2023-12-09T14:28:33.235Z,2.70
2023-12-09T14:31:00.627Z,2.40
2023-12-09T14:33:28.532Z,2.27
2023-12-09T14:35:56.084Z,2.54
2023-12-09T14:38:23.493Z,2.37
2023-12-09T14:40:51.249Z,2.47
2023-12-09T14:43:18.837Z,2.06
2023-12-09T14:45:46.295Z,2.23
2023-12-09T14:48:15.305Z,2.42
2023-12-09T14:50:42.901Z,2.99
2023-12-09T14:53:13.814Z,2.11
2023-12-09T14:55:42.209Z,2.17
2023-12-09T14:58:10.014Z,1.98
2023-12-09T15:00:38.002Z,1.99
2023-12-09T15:03:06.071Z,1.95
2023-12-09T15:05:33.694Z,1.99
2023-12-09T15:08:02.554Z,1.84
2023-12-09T15:10:30.286Z,1.38
2023-12-09T15:12:57.743Z,2.29
2023-12-09T15:15:25.193Z,2.14
2023-12-09T15:17:53.081Z,1.76
2023-12-09T15:20:20.933Z,2.29
2023-12-09T15:22:50.438Z,2.03
2023-12-09T15:25:18.395Z,1.82
2023-12-09T15:27:47.141Z,1.92
2023-12-09T15:30:14.989Z,2.03
2023-12-09T15:32:45.399Z,2.21
2023-12-09T15:35:12.960Z,2.08
2023-12-09T15:37:41.051Z,2.26
2023-12-09T15:40:12.041Z,1.89
2023-12-09T15:42:39.892Z,2.00
2023-12-09T15:45:07.905Z,2.21
2023-12-09T15:47:35.625Z,1.82
2023-12-09T15:50:04.467Z,2.00
2023-12-09T15:52:32.082Z,2.11
2023-12-09T15:54:59.822Z,2.16
2023-12-09T15:57:27.276Z,2.15
2023-12-09T15:59:55.024Z,2.24
2023-12-09T16:02:23.165Z,2.52
2023-12-09T16:04:50.867Z,1.75
2023-12-09T16:07:18.370Z,2.01
2023-12-09T16:09:51.945Z,1.84
2023-12-09T16:12:21.435Z,1.72
2023-12-09T16:14:53.122Z,1.95
2023-12-09T16:17:21.226Z,1.82
2023-12-09T16:19:49.063Z,2.11
2023-12-09T16:22:17.730Z,2.32
2023-12-09T16:24:47.176Z,2.40
2023-12-09T16:27:15.830Z,1.88
2023-12-09T16:29:43.320Z,1.74
2023-12-09T16:32:11.929Z,1.45
2023-12-09T16:34:39.760Z,1.82
2023-12-09T16:37:07.260Z,1.94
2023-12-09T16:39:35.012Z,1.65
2023-12-09T16:42:03.016Z,2.16
2023-12-09T16:44:30.559Z,2.20
2023-12-09T16:46:58.276Z,2.23
2023-12-09T16:49:25.807Z,2.14
2023-12-09T16:51:53.297Z,2.27
2023-12-09T16:54:22.078Z,2.53
2023-12-09T16:56:50.429Z,2.08
2023-12-09T16:59:19.295Z,2.55
2023-12-09T17:01:48.185Z,2.22
2023-12-09T17:04:16.306Z,2.69
2023-12-09T17:06:44.623Z,2.53
2023-12-09T17:09:12.408Z,1.64
2023-12-09T17:11:39.954Z,2.15
2023-12-09T17:14:07.332Z,2.42
2023-12-09T17:16:35.510Z,1.77
2023-12-09T17:19:03.320Z,1.92
2023-12-09T17:21:30.925Z,2.25
2023-12-09T17:23:58.689Z,2.50
2023-12-09T17:26:26.128Z,2.44
2023-12-09T17:28:53.499Z,2.35
2023-12-09T17:31:21.188Z,2.19
2023-12-09T17:33:48.716Z,2.53
2023-12-09T17:36:17.109Z,2.60
2023-12-09T17:38:44.870Z,2.27
2023-12-09T17:41:12.315Z,2.57
2023-12-09T17:43:39.764Z,2.38
2023-12-09T17:46:07.524Z,2.55
2023-12-09T17:48:35.300Z,1.76
2023-12-09T17:51:03.254Z,1.63
2023-12-09T17:53:30.970Z,1.85
2023-12-09T17:55:58.353Z,1.45
2023-12-09T17:58:25.795Z,1.83
2023-12-09T18:00:54.130Z,2.05
2023-12-09T18:03:22.050Z,2.05
2023-12-09T18:05:51.778Z,2.18
2023-12-09T18:08:19.922Z,1.87
2023-12-09T18:10:47.613Z,2.39
2023-12-09T18:13:15.148Z,2.31
2023-12-09T18:15:45.564Z,2.73
2023-12-09T18:18:13.948Z,2.27
2023-12-09T18:20:41.390Z,1.96
2023-12-09T18:23:08.907Z,2.12
2023-12-09T18:25:36.762Z,1.23
2023-12-09T18:28:04.373Z,2.23
2023-12-09T18:30:32.570Z,2.17
2023-12-09T18:33:00.942Z,2.09
2023-12-09T18:35:28.370Z,2.19
2023-12-09T18:37:55.913Z,2.33
2023-12-09T18:40:24.270Z,1.85
2023-12-09T18:42:52.526Z,1.92
2023-12-09T18:45:20.361Z,2.37
2023-12-09T18:47:48.630Z,2.01
2023-12-09T18:50:16.200Z,2.24
2023-12-09T18:52:43.628Z,2.51
2023-12-09T18:55:12.052Z,1.91
2023-12-09T18:57:40.814Z,2.20
2023-12-09T19:00:08.876Z,1.92
2023-12-09T19:02:36.819Z,1.60
2023-12-09T19:05:04.636Z,1.30
2023-12-09T19:07:32.064Z,1.33
2023-12-09T19:10:04.766Z,1.29
2023-12-09T19:12:33.751Z,1.90
2023-12-09T19:15:01.562Z,2.02
2023-12-09T19:17:29.314Z,1.93
2023-12-09T19:19:56.834Z,1.90
2023-12-09T19:22:24.759Z,1.40
2023-12-09T19:24:52.271Z,1.07
2023-12-09T19:27:22.076Z,1.23
2023-12-09T19:29:49.808Z,1.31
2023-12-09T19:32:17.476Z,1.55
2023-12-09T19:34:45.041Z,0.93
2023-12-09T19:37:13.725Z,1.33
2023-12-09T19:39:41.681Z,1.24
2023-12-09T19:42:09.196Z,1.36
2023-12-09T19:44:36.893Z,1.46
2023-12-09T19:47:04.437Z,1.24
2023-12-09T19:49:32.367Z,1.14
2023-12-09T19:52:00.080Z,0.92
2023-12-09T19:54:27.493Z,0.98
2023-12-09T19:56:55.748Z,1.00
2023-12-09T19:59:23.577Z,1.36
2023-12-09T20:01:51.012Z,1.12
2023-12-09T20:04:18.895Z,0.81
2023-12-09T20:06:46.877Z,1.04
2023-12-09T20:09:14.962Z,1.13
2023-12-09T20:11:42.790Z,0.83
2023-12-09T20:14:10.191Z,1.08
2023-12-09T20:16:37.617Z,0.97
2023-12-09T20:19:06.894Z,1.51
2023-12-09T20:21:36.385Z,0.62
2023-12-09T20:24:04.047Z,0.66
2023-12-09T20:26:32.752Z,0.51
2023-12-09T20:29:00.300Z,0.83
2023-12-09T20:31:27.762Z,1.19
2023-12-09T20:33:55.542Z,1.24
2023-12-09T20:36:23.044Z,1.29
2023-12-09T20:38:50.472Z,1.05
2023-12-09T20:41:18.253Z,1.01
2023-12-09T20:43:45.699Z,1.07
2023-12-09T20:46:13.246Z,1.48
2023-12-09T20:48:40.974Z,1.38
2023-12-09T20:51:09.002Z,1.36
2023-12-09T20:53:36.568Z,0.93
2023-12-09T20:56:05.593Z,1.38
2023-12-09T20:58:34.350Z,1.63
2023-12-09T21:01:02.708Z,1.00
2023-12-09T21:03:31.300Z,0.82
2023-12-09T21:05:58.830Z,0.96
2023-12-09T21:08:26.228Z,1.13
2023-12-09T21:10:53.890Z,0.96
2023-12-09T21:13:21.316Z,0.33
2023-12-09T21:15:48.821Z,0.22
2023-12-09T21:18:16.738Z,0.42
2023-12-09T21:20:44.265Z,1.00
2023-12-09T21:23:11.723Z,0.35
2023-12-09T21:25:39.434Z,1.21
2023-12-09T21:28:08.913Z,1.13
2023-12-09T21:30:36.803Z,0.67
2023-12-09T21:33:04.959Z,0.54
2023-12-09T21:35:32.498Z,1.03
2023-12-09T21:37:59.939Z,0.82
2023-12-09T21:40:27.655Z,1.06
2023-12-09T21:42:57.660Z,1.06
2023-12-09T21:45:26.318Z,0.89
2023-12-09T21:47:55.708Z,0.81
2023-12-09T21:50:24.220Z,1.05
2023-12-09T21:52:51.841Z,0.45
2023-12-09T21:55:21.022Z,0.10
2023-12-09T21:57:48.542Z,0.55
2023-12-09T22:00:16.404Z,0.73
2023-12-09T22:02:44.468Z,0.65
2023-12-09T22:05:11.982Z,1.08
2023-12-09T22:07:39.632Z,1.07
2023-12-09T22:10:07.773Z,1.40
2023-12-09T22:12:36.434Z,1.26
2023-12-09T22:15:06.208Z,1.10
2023-12-09T22:17:34.044Z,0.67
2023-12-09T22:20:02.919Z,0.80
2023-12-09T22:22:38.047Z,0.78
2023-12-09T22:25:15.039Z,1.08
2023-12-09T22:27:42.513Z,0.32
2023-12-09T22:30:10.703Z,0.72
2023-12-09T22:32:38.420Z,0.97
2023-12-09T22:35:06.212Z,1.12
2023-12-09T22:37:33.657Z,0.88
2023-12-09T22:40:01.557Z,1.11
2023-12-09T22:42:29.615Z,1.35
2023-12-09T22:44:57.404Z,1.29
2023-12-09T22:47:25.365Z,1.11
2023-12-09T22:49:52.986Z,1.53
2023-12-09T22:52:20.440Z,1.68
2023-12-09T22:54:48.159Z,1.66
2023-12-09T22:57:16.445Z,1.43
2023-12-09T22:59:46.165Z,1.50
2023-12-09T23:02:13.879Z,1.43
2023-12-09T23:04:41.354Z,1.49
2023-12-09T23:07:08.876Z,1.21
2023-12-09T23:09:36.734Z,0.85
2023-12-09T23:12:04.580Z,0.32
2023-12-09T23:14:32.025Z,0.30
2023-12-09T23:16:59.790Z,0.61
2023-12-09T23:19:29.359Z,0.53
2023-12-09T23:21:56.841Z,0.89
2023-12-09T23:24:24.552Z,0.60
2023-12-09T23:26:52.138Z,0.78
2023-12-09T23:29:19.572Z,0.94
2023-12-09T23:31:47.320Z,0.69
2023-12-09T23:34:16.823Z,0.51
2023-12-09T23:36:44.628Z,0.60
2023-12-09T23:39:13.416Z,0.65
2023-12-09T23:41:40.817Z,0.64
2023-12-09T23:44:08.602Z,0.94
2023-12-09T23:46:36.305Z,1.02
2023-12-09T23:49:03.822Z,0.87
2023-12-09T23:51:31.511Z,1.36
2023-12-09T23:53:59.344Z,1.27
2023-12-09T23:56:27.785Z,1.30
2023-12-09T23:58:55.228Z,1.37
